RYR3YD EGNT-EIDW
Flight info
| Callsign | RYR3YD |
|---|---|
| Flight time | N/A |
| Altitude | 28000 |
| Route | GIRLI P18 GASKO P16 RIBEL DCT GUNTU Z196 LELDO M145 BAGSO BAGSO4L |
| Aircraft | B38M/M-SDE1FGHILORVWXY/HB1 |
Departure
| Time | N/A |
|---|---|
| Airport | Newcastle International Airport (EGNT) |
Arrival
| Time | 2026-05-03 21:08 |
|---|---|
| Airport | Dublin Airport (EIDW) |
| Time | Latitude | Longitude | Altitude | Speed | Heading |
|---|---|---|---|---|---|
| 2026-05-03 20:15 | 54.18270 | -2.02494 | 22984 ft | 350 kts | 223° |
| 2026-05-03 20:15 | 54.16484 | -2.05292 | 22988 ft | 350 kts | 223° |
| 2026-05-03 20:15 | 54.14698 | -2.08116 | 22988 ft | 350 kts | 223° |
| 2026-05-03 20:15 | 54.12913 | -2.10957 | 22983 ft | 350 kts | 223° |
| 2026-05-03 20:16 | 54.11121 | -2.13815 | 22989 ft | 355 kts | 224° |
| 2026-05-03 20:16 | 54.09308 | -2.16710 | 22983 ft | 358 kts | 224° |
| 2026-05-03 20:16 | 54.07492 | -2.19607 | 22984 ft | 359 kts | 224° |
| 2026-05-03 20:16 | 54.05669 | -2.22511 | 22988 ft | 359 kts | 224° |
| 2026-05-03 20:17 | 54.03873 | -2.25372 | 22981 ft | 358 kts | 224° |
| 2026-05-03 20:17 | 54.02049 | -2.28279 | 22978 ft | 358 kts | 225° |
| 2026-05-03 20:17 | 54.00459 | -2.31533 | 22986 ft | 358 kts | 234° |
| 2026-05-03 20:17 | 53.98929 | -2.34878 | 22970 ft | 357 kts | 232° |
| 2026-05-03 20:18 | 53.97385 | -2.38175 | 22974 ft | 358 kts | 232° |
| 2026-05-03 20:18 | 53.95827 | -2.41463 | 22976 ft | 356 kts | 231° |
| 2026-05-03 20:18 | 53.94273 | -2.44718 | 22971 ft | 354 kts | 231° |
| 2026-05-03 20:18 | 53.92725 | -2.47948 | 22982 ft | 351 kts | 231° |
| 2026-05-03 20:19 | 53.91174 | -2.51178 | 22973 ft | 352 kts | 231° |
| 2026-05-03 20:19 | 53.89618 | -2.54413 | 22969 ft | 354 kts | 231° |
| 2026-05-03 20:19 | 53.88062 | -2.57644 | 22969 ft | 353 kts | 231° |
| 2026-05-03 20:19 | 53.86510 | -2.60862 | 22971 ft | 352 kts | 231° |
| 2026-05-03 20:20 | 53.84952 | -2.64090 | 22961 ft | 357 kts | 231° |
| 2026-05-03 20:20 | 53.83387 | -2.67327 | 22962 ft | 361 kts | 231° |
| 2026-05-03 20:20 | 53.81796 | -2.70611 | 22969 ft | 361 kts | 231° |
| 2026-05-03 20:20 | 53.80202 | -2.73899 | 22959 ft | 361 kts | 231° |
| 2026-05-03 20:21 | 53.78606 | -2.77186 | 22968 ft | 362 kts | 231° |
| 2026-05-03 20:21 | 53.77011 | -2.80467 | 22967 ft | 361 kts | 231° |
| 2026-05-03 20:21 | 53.75420 | -2.83735 | 22968 ft | 361 kts | 231° |
| 2026-05-03 20:21 | 53.73817 | -2.87024 | 22964 ft | 361 kts | 231° |
| 2026-05-03 20:22 | 53.72218 | -2.90301 | 22965 ft | 361 kts | 231° |
| 2026-05-03 20:22 | 53.70615 | -2.93582 | 22961 ft | 361 kts | 230° |
| 2026-05-03 20:22 | 53.69042 | -2.96795 | 22958 ft | 358 kts | 230° |
| 2026-05-03 20:22 | 53.67453 | -3.00040 | 22937 ft | 358 kts | 230° |
| 2026-05-03 20:23 | 53.65867 | -3.03272 | 22959 ft | 358 kts | 230° |
| 2026-05-03 20:23 | 53.64278 | -3.06507 | 22960 ft | 357 kts | 230° |
| 2026-05-03 20:23 | 53.62695 | -3.09728 | 22957 ft | 357 kts | 230° |
| 2026-05-03 20:23 | 53.61165 | -3.13046 | 22946 ft | 360 kts | 239° |
| 2026-05-03 20:24 | 53.60253 | -3.16945 | 22952 ft | 362 kts | 259° |
| 2026-05-03 20:24 | 53.60156 | -3.21168 | 22959 ft | 363 kts | 277° |
| 2026-05-03 20:24 | 53.60583 | -3.25380 | 22968 ft | 365 kts | 280° |
| 2026-05-03 20:24 | 53.61052 | -3.29577 | 22961 ft | 365 kts | 280° |
| 2026-05-03 20:25 | 53.61536 | -3.33726 | 22964 ft | 365 kts | 281° |
| 2026-05-03 20:25 | 53.62036 | -3.37915 | 22962 ft | 365 kts | 281° |
| 2026-05-03 20:25 | 53.62543 | -3.42107 | 22964 ft | 365 kts | 281° |
| 2026-05-03 20:25 | 53.63053 | -3.46296 | 22964 ft | 365 kts | 281° |
| 2026-05-03 20:26 | 53.63562 | -3.50478 | 22958 ft | 365 kts | 281° |
| 2026-05-03 20:26 | 53.64070 | -3.54660 | 22961 ft | 365 kts | 281° |
| 2026-05-03 20:26 | 53.64575 | -3.58834 | 22961 ft | 365 kts | 281° |
| 2026-05-03 20:26 | 53.65120 | -3.63013 | 22960 ft | 365 kts | 283° |
| 2026-05-03 20:27 | 53.65736 | -3.67167 | 22961 ft | 366 kts | 283° |
| 2026-05-03 20:27 | 53.66345 | -3.71338 | 22963 ft | 366 kts | 283° |
| 2026-05-03 20:27 | 53.66940 | -3.75451 | 22961 ft | 365 kts | 283° |
| 2026-05-03 20:27 | 53.67539 | -3.79615 | 22960 ft | 366 kts | 283° |
| 2026-05-03 20:28 | 53.68146 | -3.83844 | 22968 ft | 366 kts | 283° |
| 2026-05-03 20:28 | 53.68740 | -3.87998 | 22962 ft | 364 kts | 283° |
| 2026-05-03 20:28 | 53.69326 | -3.92105 | 22962 ft | 364 kts | 283° |
| 2026-05-03 20:28 | 53.69915 | -3.96247 | 22966 ft | 364 kts | 283° |
| 2026-05-03 20:29 | 53.70508 | -4.00433 | 22961 ft | 364 kts | 283° |
| 2026-05-03 20:29 | 53.71089 | -4.04537 | 22960 ft | 363 kts | 283° |
| 2026-05-03 20:29 | 53.71643 | -4.08686 | 22958 ft | 363 kts | 278° |
| 2026-05-03 20:29 | 53.71826 | -4.12948 | 22975 ft | 363 kts | 273° |
| 2026-05-03 20:30 | 53.71988 | -4.17203 | 22962 ft | 363 kts | 274° |
| 2026-05-03 20:30 | 53.72151 | -4.21485 | 22965 ft | 366 kts | 274° |
| 2026-05-03 20:30 | 53.72314 | -4.25782 | 22965 ft | 367 kts | 274° |
| 2026-05-03 20:30 | 53.72474 | -4.30089 | 22968 ft | 367 kts | 274° |
| 2026-05-03 20:31 | 53.72633 | -4.34390 | 22969 ft | 366 kts | 274° |
| 2026-05-03 20:31 | 53.72788 | -4.38621 | 22964 ft | 366 kts | 274° |
| 2026-05-03 20:31 | 53.72946 | -4.42960 | 22961 ft | 366 kts | 274° |
| 2026-05-03 20:31 | 53.73098 | -4.47211 | 22963 ft | 366 kts | 274° |
| 2026-05-03 20:32 | 53.73250 | -4.51488 | 22965 ft | 370 kts | 274° |
| 2026-05-03 20:32 | 53.73406 | -4.55943 | 22957 ft | 386 kts | 274° |
| 2026-05-03 20:32 | 53.73566 | -4.60541 | 22960 ft | 396 kts | 273° |
| 2026-05-03 20:32 | 53.73724 | -4.65130 | 22857 ft | 385 kts | 273° |
| 2026-05-03 20:33 | 53.73875 | -4.69581 | 22618 ft | 376 kts | 274° |
| 2026-05-03 20:33 | 53.74024 | -4.73983 | 22228 ft | 372 kts | 274° |
| 2026-05-03 20:33 | 53.74169 | -4.78336 | 21843 ft | 368 kts | 274° |
| 2026-05-03 20:33 | 53.74309 | -4.82604 | 21482 ft | 365 kts | 274° |
| 2026-05-03 20:34 | 53.74448 | -4.86828 | 21052 ft | 354 kts | 274° |
| 2026-05-03 20:34 | 53.74582 | -4.90920 | 20729 ft | 344 kts | 274° |
| 2026-05-03 20:34 | 53.74710 | -4.94894 | 20391 ft | 341 kts | 274° |
| 2026-05-03 20:34 | 53.74838 | -4.98885 | 20046 ft | 339 kts | 274° |
| 2026-05-03 20:35 | 53.74964 | -5.02863 | 19697 ft | 338 kts | 274° |
| 2026-05-03 20:35 | 53.75088 | -5.06816 | 19362 ft | 337 kts | 274° |
| 2026-05-03 20:35 | 53.75210 | -5.10763 | 19019 ft | 336 kts | 274° |
| 2026-05-03 20:35 | 53.75108 | -5.14671 | 18621 ft | 333 kts | 257° |
| 2026-05-03 20:36 | 53.74382 | -5.18366 | 18312 ft | 332 kts | 252° |
| 2026-05-03 20:36 | 53.73658 | -5.22071 | 17957 ft | 331 kts | 252° |
| 2026-05-03 20:36 | 53.72926 | -5.25768 | 17581 ft | 329 kts | 252° |
| 2026-05-03 20:36 | 53.72192 | -5.29424 | 17245 ft | 329 kts | 251° |
| 2026-05-03 20:37 | 53.71705 | -5.31834 | 17016 ft | 327 kts | 252° |
| 2026-05-03 20:37 | 53.70730 | -5.36635 | 16568 ft | 324 kts | 252° |
| 2026-05-03 20:37 | 53.69998 | -5.40230 | 16232 ft | 323 kts | 251° |
| 2026-05-03 20:37 | 53.69266 | -5.43815 | 15897 ft | 322 kts | 251° |
| 2026-05-03 20:38 | 53.68783 | -5.46174 | 15668 ft | 321 kts | 252° |
| 2026-05-03 20:38 | 53.68062 | -5.49743 | 15334 ft | 320 kts | 255° |
| 2026-05-03 20:38 | 53.67589 | -5.53290 | 14958 ft | 317 kts | 259° |
| 2026-05-03 20:38 | 53.67127 | -5.56975 | 14633 ft | 315 kts | 259° |
| 2026-05-03 20:39 | 53.66660 | -5.60587 | 14331 ft | 314 kts | 259° |
| 2026-05-03 20:39 | 53.66186 | -5.64172 | 14010 ft | 315 kts | 258° |
| 2026-05-03 20:39 | 53.65705 | -5.67766 | 13672 ft | 312 kts | 258° |
| 2026-05-03 20:39 | 53.65232 | -5.71261 | 13311 ft | 310 kts | 258° |
| 2026-05-03 20:40 | 53.64749 | -5.74816 | 12972 ft | 308 kts | 258° |
| 2026-05-03 20:40 | 53.64279 | -5.78336 | 12619 ft | 307 kts | 258° |
| 2026-05-03 20:40 | 53.63815 | -5.81840 | 12274 ft | 306 kts | 259° |
| 2026-05-03 20:40 | 53.63354 | -5.85320 | 11984 ft | 306 kts | 258° |
| 2026-05-03 20:41 | 53.62887 | -5.88815 | 11670 ft | 303 kts | 258° |
| 2026-05-03 20:41 | 53.62425 | -5.92282 | 11350 ft | 301 kts | 258° |
| 2026-05-03 20:41 | 53.61969 | -5.95691 | 11033 ft | 299 kts | 258° |
| 2026-05-03 20:41 | 53.61508 | -5.99123 | 10716 ft | 299 kts | 258° |
| 2026-05-03 20:42 | 53.61048 | -6.02540 | 10402 ft | 298 kts | 258° |
| 2026-05-03 20:42 | 53.60595 | -6.05904 | 10097 ft | 297 kts | 258° |
| 2026-05-03 20:42 | 53.60136 | -6.09297 | 9819 ft | 296 kts | 258° |
| 2026-05-03 20:42 | 53.59678 | -6.12668 | 9469 ft | 293 kts | 258° |
| 2026-05-03 20:43 | 53.59226 | -6.16007 | 9133 ft | 292 kts | 259° |
| 2026-05-03 20:43 | 53.58776 | -6.19316 | 8799 ft | 291 kts | 258° |
| 2026-05-03 20:43 | 53.58328 | -6.22597 | 8499 ft | 292 kts | 258° |
| 2026-05-03 20:43 | 53.57872 | -6.25934 | 8269 ft | 290 kts | 258° |
| 2026-05-03 20:44 | 53.57420 | -6.29232 | 8165 ft | 289 kts | 258° |
| 2026-05-03 20:44 | 53.56971 | -6.32519 | 8064 ft | 288 kts | 259° |
| 2026-05-03 20:44 | 53.56929 | -6.35827 | 7961 ft | 281 kts | 288° |
| 2026-05-03 20:44 | 53.57906 | -6.38592 | 7964 ft | 275 kts | 320° |
| 2026-05-03 20:45 | 53.59503 | -6.40352 | 7991 ft | 275 kts | 332° |
| 2026-05-03 20:45 | 53.60919 | -6.42363 | 7890 ft | 265 kts | 312° |
| 2026-05-03 20:45 | 53.62006 | -6.44806 | 7782 ft | 256 kts | 308° |
| 2026-05-03 20:45 | 53.63021 | -6.47215 | 7648 ft | 247 kts | 308° |
| 2026-05-03 20:46 | 53.64019 | -6.49547 | 7345 ft | 242 kts | 308° |
| 2026-05-03 20:46 | 53.64984 | -6.51809 | 6981 ft | 231 kts | 309° |
| 2026-05-03 20:46 | 53.65890 | -6.53978 | 6613 ft | 223 kts | 308° |
| 2026-05-03 20:46 | 53.66765 | -6.56082 | 6275 ft | 220 kts | 308° |
| 2026-05-03 20:47 | 53.67632 | -6.58188 | 5910 ft | 216 kts | 308° |
| 2026-05-03 20:47 | 53.68472 | -6.60245 | 5536 ft | 209 kts | 308° |
| 2026-05-03 20:47 | 53.69285 | -6.62246 | 5175 ft | 203 kts | 308° |
| 2026-05-03 20:47 | 53.70068 | -6.64160 | 4976 ft | 195 kts | 308° |
| 2026-05-03 20:48 | 53.70839 | -6.66044 | 4920 ft | 195 kts | 308° |
| 2026-05-03 20:48 | 53.71563 | -6.67964 | 4919 ft | 194 kts | 297° |
| 2026-05-03 20:48 | 53.71913 | -6.70140 | 4957 ft | 192 kts | 284° |
| 2026-05-03 20:48 | 53.72152 | -6.72328 | 5012 ft | 190 kts | 283° |
| 2026-05-03 20:49 | 53.72382 | -6.74534 | 5042 ft | 191 kts | 283° |
| 2026-05-03 20:49 | 53.72612 | -6.76743 | 4980 ft | 190 kts | 283° |
| 2026-05-03 20:49 | 53.72834 | -6.78942 | 4773 ft | 190 kts | 279° |
| 2026-05-03 20:49 | 53.72783 | -6.81174 | 4508 ft | 191 kts | 264° |
| 2026-05-03 20:50 | 53.72583 | -6.83398 | 4245 ft | 191 kts | 263° |
| 2026-05-03 20:50 | 53.72361 | -6.85594 | 3974 ft | 192 kts | 258° |
| 2026-05-03 20:50 | 53.71821 | -6.87648 | 3686 ft | 193 kts | 240° |
| 2026-05-03 20:50 | 53.71104 | -6.89583 | 3380 ft | 194 kts | 238° |
| 2026-05-03 20:51 | 53.70225 | -6.91292 | 3072 ft | 192 kts | 216° |
| 2026-05-03 20:51 | 53.69102 | -6.92491 | 3006 ft | 191 kts | 208° |
| 2026-05-03 20:51 | 53.67959 | -6.93603 | 2987 ft | 192 kts | 208° |
| 2026-05-03 20:51 | 53.66775 | -6.94638 | 2973 ft | 191 kts | 194° |
| 2026-05-03 20:52 | 53.65483 | -6.94924 | 2985 ft | 187 kts | 179° |
| 2026-05-03 20:52 | 53.64206 | -6.94695 | 2955 ft | 181 kts | 153° |
| 2026-05-03 20:52 | 53.63105 | -6.93706 | 2994 ft | 179 kts | 143° |
| 2026-05-03 20:52 | 53.62045 | -6.92610 | 3046 ft | 179 kts | 143° |
| 2026-05-03 20:53 | 53.61029 | -6.91426 | 3024 ft | 177 kts | 138° |
| 2026-05-03 20:53 | 53.60036 | -6.90185 | 2991 ft | 177 kts | 138° |
| 2026-05-03 20:53 | 53.59050 | -6.88929 | 3203 ft | 173 kts | 134° |
| 2026-05-03 20:53 | 53.58182 | -6.87558 | 3348 ft | 169 kts | 131° |
| 2026-05-03 20:54 | 53.57344 | -6.86200 | 3223 ft | 166 kts | 131° |
| 2026-05-03 20:54 | 53.55671 | -6.83519 | 2996 ft | 165 kts | 131° |
| 2026-05-03 20:54 | 53.54833 | -6.82188 | 2974 ft | 166 kts | 131° |
| 2026-05-03 20:55 | 53.53990 | -6.80854 | 2973 ft | 167 kts | 131° |
| 2026-05-03 20:55 | 53.53157 | -6.79535 | 2976 ft | 167 kts | 131° |
| 2026-05-03 20:55 | 53.52288 | -6.78162 | 2990 ft | 172 kts | 131° |
| 2026-05-03 20:55 | 53.51419 | -6.76788 | 2994 ft | 176 kts | 132° |
| 2026-05-03 20:56 | 53.50515 | -6.75368 | 2992 ft | 178 kts | 132° |
| 2026-05-03 20:56 | 53.49611 | -6.73945 | 2988 ft | 178 kts | 132° |
| 2026-05-03 20:56 | 53.48714 | -6.72536 | 2975 ft | 174 kts | 132° |
| 2026-05-03 20:56 | 53.47845 | -6.71173 | 2945 ft | 167 kts | 131° |
| 2026-05-03 20:57 | 53.47274 | -6.69574 | 2897 ft | 159 kts | 94° |
| 2026-05-03 20:57 | 53.47501 | -6.67772 | 2962 ft | 164 kts | 62° |
| 2026-05-03 20:57 | 53.48074 | -6.66064 | 3008 ft | 171 kts | 58° |
| 2026-05-03 20:57 | 53.48752 | -6.64425 | 2976 ft | 172 kts | 41° |
| 2026-05-03 20:58 | 53.49812 | -6.63459 | 2987 ft | 178 kts | 24° |
| 2026-05-03 20:58 | 53.51005 | -6.62866 | 2971 ft | 185 kts | 7° |
| 2026-05-03 20:58 | 53.52307 | -6.62941 | 3003 ft | 188 kts | 359° |
| 2026-05-03 20:58 | 53.53560 | -6.63596 | 2927 ft | 194 kts | 329° |
| 2026-05-03 20:59 | 53.54572 | -6.65132 | 2975 ft | 197 kts | 319° |
| 2026-05-03 20:59 | 53.55533 | -6.66786 | 2995 ft | 198 kts | 317° |
| 2026-05-03 20:59 | 53.56193 | -6.68817 | 2934 ft | 205 kts | 284° |
| 2026-05-03 20:59 | 53.56018 | -6.71164 | 2939 ft | 204 kts | 245° |
| 2026-05-03 21:00 | 53.55074 | -6.72868 | 2945 ft | 201 kts | 208° |
| 2026-05-03 21:00 | 53.54210 | -6.73366 | 2962 ft | 197 kts | 183° |
| 2026-05-03 21:00 | 53.52415 | -6.73050 | 3027 ft | 195 kts | 161° |
| 2026-05-03 21:00 | 53.51124 | -6.72384 | 3017 ft | 192 kts | 155° |
| 2026-05-03 21:01 | 53.49893 | -6.71524 | 2994 ft | 191 kts | 152° |
| 2026-05-03 21:01 | 53.48742 | -6.70507 | 2980 ft | 189 kts | 143° |
| 2026-05-03 21:01 | 53.47628 | -6.69333 | 2995 ft | 189 kts | 143° |
| 2026-05-03 21:01 | 53.46618 | -6.67965 | 2950 ft | 183 kts | 121° |
| 2026-05-03 21:02 | 53.46151 | -6.66035 | 2975 ft | 178 kts | 100° |
| 2026-05-03 21:02 | 53.45898 | -6.64000 | 3037 ft | 178 kts | 97° |
| 2026-05-03 21:02 | 53.45700 | -6.61951 | 3020 ft | 178 kts | 94° |
| 2026-05-03 21:02 | 53.45539 | -6.59899 | 3000 ft | 177 kts | 93° |
| 2026-05-03 21:03 | 53.45401 | -6.57847 | 2987 ft | 177 kts | 93° |
| 2026-05-03 21:03 | 53.45274 | -6.55794 | 2980 ft | 175 kts | 92° |
| 2026-05-03 21:03 | 53.45159 | -6.53881 | 2951 ft | 160 kts | 92° |
| 2026-05-03 21:03 | 53.45056 | -6.52075 | 2961 ft | 156 kts | 92° |
| 2026-05-03 21:04 | 53.44952 | -6.50254 | 2787 ft | 156 kts | 91° |
| 2026-05-03 21:04 | 53.44851 | -6.48450 | 2599 ft | 155 kts | 92° |
| 2026-05-03 21:04 | 53.44749 | -6.46641 | 2407 ft | 156 kts | 92° |
| 2026-05-03 21:04 | 53.44647 | -6.44839 | 2210 ft | 155 kts | 92° |
| 2026-05-03 21:05 | 53.44544 | -6.43037 | 2008 ft | 154 kts | 91° |
| 2026-05-03 21:05 | 53.44440 | -6.41249 | 1822 ft | 149 kts | 90° |
| 2026-05-03 21:05 | 53.44342 | -6.39569 | 1600 ft | 141 kts | 91° |
| 2026-05-03 21:05 | 53.44252 | -6.37953 | 1412 ft | 141 kts | 91° |
| 2026-05-03 21:06 | 53.44172 | -6.36311 | 1233 ft | 141 kts | 90° |
| 2026-05-03 21:06 | 53.44108 | -6.34684 | 1093 ft | 141 kts | 93° |
| 2026-05-03 21:06 | 53.44006 | -6.33048 | 834 ft | 140 kts | 92° |
| 2026-05-03 21:06 | 53.43911 | -6.31427 | 688 ft | 139 kts | 92° |
| 2026-05-03 21:07 | 53.43819 | -6.29807 | 462 ft | 140 kts | 92° |
| 2026-05-03 21:07 | 53.43734 | -6.28212 | 285 ft | 133 kts | 92° |
| 2026-05-03 21:07 | 53.43653 | -6.26772 | 218 ft | 109 kts | 96° |
| 2026-05-03 21:07 | 53.43597 | -6.25822 | 217 ft | 57 kts | 96° |
| 2026-05-03 21:08 | 53.43564 | -6.25392 | 216 ft | 30 kts | 103° |
| 2026-05-03 21:08 | 53.43486 | -6.25105 | 219 ft | 25 kts | 121° |
| 2026-05-03 21:08 | 53.43379 | -6.25031 | 216 ft | 16 kts | 266° |
| 2026-05-03 21:08 | 53.43388 | -6.25229 | 216 ft | 19 kts | 276° |
| 2026-05-03 21:09 | 53.43401 | -6.25464 | 213 ft | 22 kts | 275° |
| 2026-05-03 21:09 | 53.43373 | -6.25674 | 215 ft | 11 kts | 179° |
| 2026-05-03 21:09 | 53.43309 | -6.25615 | 217 ft | 12 kts | 156° |
| 2026-05-03 21:09 | 53.43223 | -6.25553 | 217 ft | 15 kts | 156° |
| 2026-05-03 21:10 | 53.43184 | -6.25488 | 213 ft | 3 kts | 120° |
| 2026-05-03 21:10 | 53.43107 | -6.25469 | 216 ft | 20 kts | 160° |
| 2026-05-03 21:10 | 53.42971 | -6.25360 | 213 ft | 18 kts | 131° |
| 2026-05-03 21:10 | 53.42962 | -6.25156 | 213 ft | 20 kts | 95° |
| 2026-05-03 21:11 | 53.42951 | -6.24970 | 220 ft | 17 kts | 96° |
| 2026-05-03 21:11 | 53.42953 | -6.24828 | 213 ft | 7 kts | 41° |
| 2026-05-03 21:11 | 53.42996 | -6.24814 | 216 ft | 8 kts | 5° |
| 2026-05-03 21:11 | 53.43003 | -6.24813 | 213 ft | 0 kts | 5° |